createdAt,value
2022-09-01T00:00:29.976Z,4.50
2022-09-01T00:02:58.061Z,3.15
2022-09-01T00:05:26.038Z,4.00
2022-09-01T00:07:54.006Z,3.15
2022-09-01T00:10:21.994Z,2.97
2022-09-01T00:12:50.165Z,3.30
2022-09-01T00:15:19.452Z,3.67
2022-09-01T00:17:47.420Z,2.90
2022-09-01T00:20:20.068Z,3.67
2022-09-01T00:22:48.746Z,3.10
2022-09-01T00:25:18.830Z,2.95
2022-09-01T00:27:47.299Z,2.50
2022-09-01T00:30:15.302Z,3.53
2022-09-01T00:32:46.800Z,2.45
2022-09-01T00:35:14.970Z,3.00
2022-09-01T00:37:43.022Z,2.40
2022-09-01T00:40:13.992Z,2.60
2022-09-01T00:42:44.600Z,2.80
2022-09-01T00:45:13.374Z,3.50
2022-09-01T00:47:41.545Z,3.35
2022-09-01T00:50:13.812Z,3.17
2022-09-01T00:52:45.807Z,4.18
2022-09-01T00:55:17.381Z,2.72
2022-09-01T00:57:46.807Z,3.53
2022-09-01T01:00:20.451Z,3.00
2022-09-01T01:02:55.904Z,3.28
2022-09-01T01:05:33.109Z,3.00
2022-09-01T01:08:03.100Z,2.75
2022-09-01T01:10:35.901Z,3.58
2022-09-01T01:13:08.849Z,3.72
2022-09-01T01:15:37.962Z,3.15
2022-09-01T01:18:06.046Z,3.85
2022-09-01T01:20:54.354Z,3.13
2022-09-01T01:23:29.673Z,4.40
2022-09-01T01:26:00.950Z,3.95
2022-09-01T01:28:32.485Z,2.70
2022-09-01T01:31:06.802Z,3.20
2022-09-01T01:36:13.319Z,3.25
2022-09-01T01:38:43.211Z,3.83
2022-09-01T01:41:14.173Z,3.53
2022-09-01T01:43:42.448Z,2.80
2022-09-01T01:46:12.374Z,3.83
2022-09-01T01:48:44.107Z,3.20
2022-09-01T01:51:13.899Z,3.60
2022-09-01T01:53:43.873Z,2.90
2022-09-01T01:56:13.223Z,3.28
2022-09-01T01:58:41.295Z,3.60
2022-09-01T02:01:13.124Z,3.25
2022-09-01T02:03:42.046Z,2.97
2022-09-01T02:06:12.077Z,3.53
2022-09-01T02:08:42.045Z,3.30
2022-09-01T02:11:11.041Z,3.28
2022-09-01T02:13:40.549Z,3.20
2022-09-01T02:16:12.912Z,2.92
2022-09-01T02:18:48.586Z,2.80
2022-09-01T02:21:20.557Z,2.90
2022-09-01T02:23:50.789Z,3.10
2022-09-01T02:26:18.975Z,3.13
2022-09-01T02:28:55.268Z,2.88
2022-09-01T02:31:28.183Z,2.75
2022-09-01T02:33:57.476Z,2.90
2022-09-01T02:36:26.619Z,2.90
2022-09-01T02:38:56.732Z,3.15
2022-09-01T02:41:34.616Z,3.75
2022-09-01T02:44:11.750Z,3.50
2022-09-01T02:46:41.929Z,4.43
2022-09-01T02:49:15.261Z,4.00
2022-09-01T02:51:44.524Z,3.47
2022-09-01T02:54:14.007Z,3.88
2022-09-01T02:56:42.282Z,4.82
2022-09-01T02:59:13.123Z,5.15
2022-09-01T03:01:41.870Z,4.57
2022-09-01T03:04:10.383Z,4.28
2022-09-01T03:06:39.912Z,4.57
2022-09-01T03:09:11.201Z,5.53
2022-09-01T03:11:41.621Z,5.37
2022-09-01T03:14:12.344Z,4.03
2022-09-01T03:16:41.806Z,3.78
2022-09-01T03:19:12.046Z,3.72
2022-09-01T03:21:44.111Z,3.78
2022-09-01T03:24:17.989Z,3.67
2022-09-01T03:26:50.392Z,4.93
2022-09-01T03:29:21.409Z,4.15
2022-09-01T03:31:49.825Z,4.22
2022-09-01T03:34:20.802Z,3.53
2022-09-01T03:36:51.289Z,3.28
2022-09-01T03:39:26.540Z,4.40
2022-09-01T03:41:55.380Z,3.28
2022-09-01T03:44:24.807Z,3.63
2022-09-01T03:46:52.946Z,4.35
2022-09-01T03:49:27.770Z,3.88
2022-09-01T03:51:57.436Z,2.97
2022-09-01T03:54:30.380Z,3.83
2022-09-01T03:57:00.717Z,2.90
2022-09-01T03:59:32.031Z,3.30
2022-09-01T04:02:00.258Z,3.00
2022-09-01T04:04:29.409Z,3.47
2022-09-01T04:06:57.695Z,3.03
2022-09-01T04:09:25.788Z,5.05
2022-09-01T04:11:54.151Z,2.90
2022-09-01T04:14:27.621Z,3.17
2022-09-01T04:17:17.733Z,3.33
2022-09-01T04:20:01.652Z,3.20
2022-09-01T04:22:32.004Z,3.35
2022-09-01T04:25:00.358Z,3.30
2022-09-01T04:27:29.052Z,3.30
2022-09-01T04:29:58.061Z,2.83
2022-09-01T04:32:30.871Z,4.20
2022-09-01T04:35:02.366Z,4.03
2022-09-01T04:37:32.327Z,3.58
2022-09-01T04:42:32.852Z,2.65
2022-09-01T04:45:10.905Z,5.07
2022-09-01T04:47:45.509Z,4.43
2022-09-01T04:50:18.127Z,3.85
2022-09-01T04:53:07.210Z,3.10
2022-09-01T04:55:50.252Z,3.33
2022-09-01T04:58:22.077Z,3.35
2022-09-01T05:00:53.092Z,4.03
2022-09-01T05:03:24.501Z,3.90
2022-09-01T05:06:17.727Z,3.70
2022-09-01T05:08:52.444Z,3.85
2022-09-01T05:11:38.820Z,4.05
2022-09-01T05:14:19.927Z,3.22
2022-09-01T05:16:48.627Z,4.35
2022-09-01T05:19:20.951Z,4.80
2022-09-01T05:21:50.503Z,3.60
2022-09-01T05:24:21.826Z,3.67
2022-09-01T05:26:50.886Z,4.25
2022-09-01T05:29:19.097Z,3.75
2022-09-01T05:31:50.609Z,3.67
2022-09-01T05:34:27.006Z,3.90
2022-09-01T05:36:59.280Z,3.05
2022-09-01T05:39:28.636Z,4.45
2022-09-01T05:41:57.273Z,3.35
2022-09-01T05:44:26.405Z,3.10
2022-09-01T05:46:59.634Z,4.70
2022-09-01T05:49:33.292Z,4.13
2022-09-01T05:52:04.733Z,3.70
2022-09-01T05:54:34.851Z,2.92
2022-09-01T05:57:23.481Z,4.82
2022-09-01T05:59:54.215Z,5.57
2022-09-01T06:02:27.195Z,3.85
2022-09-01T06:04:59.919Z,2.50
2022-09-01T06:07:32.587Z,3.67
2022-09-01T06:10:02.433Z,3.45
2022-09-01T06:12:32.145Z,2.70
2022-09-01T06:15:00.208Z,3.05
2022-09-01T06:17:30.844Z,3.88
2022-09-01T06:20:10.724Z,3.17
2022-09-01T06:22:41.536Z,3.28
2022-09-01T06:25:11.434Z,4.00
2022-09-01T06:27:44.446Z,2.88
2022-09-01T06:30:22.709Z,2.42
2022-09-01T06:33:09.347Z,2.58
2022-09-01T06:35:40.548Z,2.95
2022-09-01T06:38:10.376Z,2.28
2022-09-01T06:40:42.680Z,3.28
2022-09-01T06:43:14.086Z,4.30
2022-09-01T06:45:49.824Z,3.40
2022-09-01T06:48:20.047Z,2.67
2022-09-01T06:53:39.013Z,3.13
2022-09-01T06:56:13.444Z,3.13
2022-09-01T06:58:48.337Z,3.00
2022-09-01T07:01:19.521Z,2.20
2022-09-01T07:03:51.126Z,2.47
2022-09-01T07:09:47.339Z,4.10
2022-09-01T07:18:32.129Z,3.63
2022-09-01T07:21:07.707Z,3.20
2022-09-01T07:24:10.534Z,2.25
2022-09-01T07:26:53.444Z,1.90
2022-09-01T07:29:25.807Z,3.60
2022-09-01T07:34:49.185Z,3.75
2022-09-01T07:43:27.286Z,3.75
2022-09-01T07:51:55.534Z,2.70
2022-09-01T07:54:25.417Z,2.70
2022-09-01T07:56:55.899Z,2.17
2022-09-01T07:59:26.785Z,1.80
2022-09-01T08:02:02.278Z,4.82
2022-09-01T08:04:31.723Z,2.28
2022-09-01T08:07:01.198Z,2.30
2022-09-01T08:09:37.711Z,3.50
2022-09-01T08:12:09.989Z,3.03
2022-09-01T08:14:46.779Z,2.20
2022-09-01T08:17:18.375Z,1.77
2022-09-01T08:20:09.381Z,2.30
2022-09-01T08:23:00.432Z,2.88
2022-09-01T08:25:33.664Z,2.58
2022-09-01T08:28:04.971Z,2.25
2022-09-01T08:30:35.003Z,4.30
2022-09-01T08:33:11.443Z,1.95
2022-09-01T08:35:45.199Z,2.47
2022-09-01T08:38:13.751Z,2.35
2022-09-01T08:40:44.922Z,2.42
2022-09-01T08:43:25.882Z,2.85
2022-09-01T08:45:58.314Z,4.35
2022-09-01T08:51:25.493Z,2.53
2022-09-01T08:54:07.386Z,2.70
2022-09-01T08:56:37.537Z,2.20
2022-09-01T08:59:10.784Z,1.40
2022-09-01T09:02:07.787Z,2.13
2022-09-01T09:04:54.277Z,1.65
2022-09-01T09:07:32.147Z,2.42
2022-09-01T09:10:08.236Z,1.98
2022-09-01T09:12:51.329Z,1.85
2022-09-01T09:15:31.436Z,1.60
2022-09-01T09:18:23.350Z,2.10
2022-09-01T09:20:58.686Z,2.05
2022-09-01T09:23:31.483Z,1.40
2022-09-01T09:25:59.986Z,1.73
2022-09-01T09:28:28.045Z,2.17
2022-09-01T09:31:29.379Z,1.02
2022-09-01T09:33:59.384Z,2.05
2022-09-01T09:36:33.186Z,1.05
2022-09-01T09:39:13.394Z,1.80
2022-09-01T09:41:43.013Z,2.08
2022-09-01T09:44:26.895Z,1.50
2022-09-01T09:46:57.947Z,1.45
2022-09-01T09:49:35.921Z,2.13
2022-09-01T09:52:18.126Z,1.60
2022-09-01T09:55:03.841Z,1.15
2022-09-01T09:57:36.177Z,1.80
2022-09-01T10:00:08.707Z,2.25
2022-09-01T10:02:46.559Z,2.05
2022-09-01T10:05:27.916Z,1.17
2022-09-01T10:07:58.301Z,1.17
2022-09-01T10:10:33.803Z,1.88
2022-09-01T10:13:02.808Z,1.27
2022-09-01T10:15:35.531Z,1.35
2022-09-01T10:18:20.722Z,1.55
2022-09-01T10:20:55.449Z,1.40
2022-09-01T10:23:27.224Z,1.67
2022-09-01T10:25:59.817Z,2.00
2022-09-01T10:28:32.021Z,1.10
2022-09-01T10:31:01.988Z,1.13
2022-09-01T10:33:31.521Z,1.63
2022-09-01T10:35:59.838Z,1.38
2022-09-01T10:38:29.939Z,2.03
2022-09-01T10:41:09.197Z,2.15
2022-09-01T10:43:45.178Z,1.10
2022-09-01T10:46:51.462Z,1.90
2022-09-01T10:49:31.727Z,1.48
2022-09-01T10:52:08.740Z,1.63
2022-09-01T10:55:03.140Z,1.90
2022-09-01T10:57:52.196Z,1.75
2022-09-01T11:01:13.435Z,2.35
2022-09-01T11:04:01.959Z,1.17
2022-09-01T11:07:14.413Z,2.50
2022-09-01T11:12:43.548Z,1.83
2022-09-01T11:15:38.359Z,1.02
2022-09-01T11:18:14.547Z,1.58
2022-09-01T11:20:46.667Z,1.73
2022-09-01T11:23:25.266Z,1.33
2022-09-01T11:28:44.486Z,1.23
2022-09-01T11:31:24.057Z,1.13
2022-09-01T11:33:58.443Z,2.47
2022-09-01T11:36:31.623Z,1.63
2022-09-01T11:39:09.476Z,2.65
2022-09-01T11:41:56.728Z,2.13
2022-09-01T11:44:55.127Z,1.83
2022-09-01T11:47:28.192Z,1.30
2022-09-01T11:49:59.184Z,1.25
2022-09-01T11:52:31.606Z,1.55
2022-09-01T11:55:01.488Z,1.58
2022-09-01T11:57:32.364Z,2.15
2022-09-01T12:00:01.976Z,1.98
2022-09-01T12:02:45.600Z,2.17
2022-09-01T12:05:27.783Z,1.95
2022-09-01T12:07:56.429Z,1.48
2022-09-01T12:10:32.922Z,1.88
2022-09-01T12:13:09.276Z,2.67
2022-09-01T12:16:00.533Z,1.50
2022-09-01T12:18:32.681Z,1.77
2022-09-01T12:21:03.443Z,1.75
2022-09-01T12:23:34.510Z,1.95
2022-09-01T12:26:11.092Z,2.83
2022-09-01T12:28:41.791Z,2.13
2022-09-01T12:31:23.218Z,1.25
2022-09-01T12:33:53.521Z,2.38
2022-09-01T12:36:25.172Z,2.40
2022-09-01T12:38:55.187Z,1.70
2022-09-01T12:41:38.962Z,1.48
2022-09-01T12:44:30.529Z,2.33
2022-09-01T12:47:01.083Z,1.83
2022-09-01T12:49:47.785Z,2.00
2022-09-01T12:52:26.154Z,2.53
2022-09-01T12:55:08.880Z,1.75
2022-09-01T12:57:49.805Z,2.40
2022-09-01T13:00:20.827Z,2.20
2022-09-01T13:02:52.126Z,1.85
2022-09-01T13:05:25.893Z,2.38
2022-09-01T13:07:58.534Z,1.75
2022-09-01T13:10:29.537Z,2.92
2022-09-01T13:12:59.077Z,2.60
2022-09-01T13:15:28.010Z,2.33
2022-09-01T13:17:56.088Z,2.53
2022-09-01T13:20:24.306Z,2.55
2022-09-01T13:22:54.459Z,1.67
2022-09-01T13:25:24.172Z,1.90
2022-09-01T13:27:54.952Z,2.20
2022-09-01T13:30:28.637Z,3.15
2022-09-01T13:35:45.835Z,2.45
2022-09-01T13:38:16.184Z,2.38
2022-09-01T13:40:45.558Z,1.88
2022-09-01T13:43:15.432Z,2.20
2022-09-01T13:45:45.362Z,2.42
2022-09-01T13:48:15.546Z,1.98
2022-09-01T13:53:33.745Z,1.80
2022-09-01T13:56:01.845Z,1.98
2022-09-01T13:58:29.955Z,1.83
2022-09-01T14:01:00.118Z,2.03
2022-09-01T14:03:29.761Z,2.03
2022-09-01T14:05:57.921Z,2.50
2022-09-01T14:08:25.902Z,2.47
2022-09-01T14:10:55.142Z,2.10
2022-09-01T14:13:25.741Z,2.35
2022-09-01T14:15:54.621Z,1.98
2022-09-01T14:18:24.834Z,2.42
2022-09-01T14:20:54.737Z,2.22
2022-09-01T14:23:22.793Z,2.38
2022-09-01T14:25:52.508Z,2.67
2022-09-01T14:28:22.407Z,1.85
2022-09-01T14:33:20.877Z,2.50
2022-09-01T14:35:50.593Z,2.17
2022-09-01T14:38:19.853Z,2.35
2022-09-01T14:40:52.518Z,1.95
2022-09-01T14:43:20.718Z,2.75
2022-09-01T14:45:49.821Z,2.42
2022-09-01T14:48:20.883Z,2.03
2022-09-01T14:50:52.844Z,1.80
2022-09-01T14:53:22.380Z,2.58
2022-09-01T14:55:55.563Z,2.10
2022-09-01T14:58:25.258Z,2.97
2022-09-01T15:01:00.344Z,3.33
2022-09-01T15:03:35.811Z,2.65
2022-09-01T15:06:06.783Z,2.83
2022-09-01T15:08:35.056Z,2.90
2022-09-01T15:11:03.101Z,2.92
2022-09-01T15:13:31.229Z,2.03
2022-09-01T15:15:59.600Z,3.45
2022-09-01T15:18:27.649Z,2.78
2022-09-01T15:20:56.133Z,1.75
2022-09-01T15:23:27.112Z,2.67
2022-09-01T15:25:57.835Z,2.08
2022-09-01T15:28:28.866Z,2.38
2022-09-01T15:31:00.118Z,3.40
2022-09-01T15:33:28.377Z,2.73
2022-09-01T15:35:56.531Z,3.10
2022-09-01T15:38:30.284Z,2.65
2022-09-01T15:41:00.445Z,2.75
2022-09-01T15:43:29.507Z,2.92
2022-09-01T15:45:59.522Z,2.35
2022-09-01T15:48:28.730Z,3.60
2022-09-01T15:51:18.246Z,2.53
2022-09-01T15:53:47.776Z,2.60
2022-09-01T15:56:18.642Z,2.95
2022-09-01T15:59:01.112Z,2.80
2022-09-01T16:01:31.963Z,2.05
2022-09-01T16:04:01.557Z,1.90
2022-09-01T16:06:32.702Z,2.28
2022-09-01T16:09:02.939Z,3.40
2022-09-01T16:11:31.147Z,2.53
2022-09-01T16:14:01.459Z,2.92
2022-09-01T16:16:41.764Z,2.90
2022-09-01T16:19:24.959Z,2.72
2022-09-01T16:22:00.863Z,1.88
2022-09-01T16:24:30.492Z,2.55
2022-09-01T16:26:58.923Z,2.92
2022-09-01T16:29:33.856Z,3.15
2022-09-01T16:32:02.091Z,2.38
2022-09-01T16:34:32.300Z,2.17
2022-09-01T16:37:05.743Z,2.38
2022-09-01T16:39:42.777Z,1.90
2022-09-01T16:42:22.706Z,2.63
2022-09-01T16:45:00.836Z,3.10
2022-09-01T16:47:44.846Z,3.17
2022-09-01T16:50:22.057Z,2.88
2022-09-01T16:53:11.034Z,2.45
2022-09-01T16:55:56.830Z,2.85
2022-09-01T16:58:31.880Z,1.95
2022-09-01T17:01:14.195Z,2.67
2022-09-01T17:03:56.964Z,2.53
2022-09-01T17:06:31.859Z,2.95
2022-09-01T17:09:10.149Z,3.63
2022-09-01T17:11:49.179Z,3.00
2022-09-01T17:14:25.534Z,3.72
2022-09-01T17:16:55.824Z,3.55
2022-09-01T17:19:29.262Z,3.15
2022-09-01T17:22:05.341Z,2.03
2022-09-01T17:24:38.567Z,1.90
2022-09-01T17:27:14.083Z,2.92
2022-09-01T17:29:45.083Z,2.17
2022-09-01T17:32:32.815Z,2.13
2022-09-01T17:35:15.956Z,2.63
2022-09-01T17:37:59.179Z,2.42
2022-09-01T17:44:57.147Z,2.38
2022-09-01T17:47:37.783Z,2.97
2022-09-01T17:50:16.313Z,2.30
2022-09-01T17:52:53.197Z,3.17
2022-09-01T17:55:37.144Z,2.97
2022-09-01T17:58:13.485Z,2.75
2022-09-01T18:00:52.763Z,4.50
2022-09-01T18:03:35.631Z,3.40
2022-09-01T18:06:08.519Z,3.78
2022-09-01T18:08:40.739Z,3.28
2022-09-01T18:13:53.761Z,4.10
2022-09-01T18:16:27.183Z,3.03
2022-09-01T18:18:58.649Z,4.10
2022-09-01T18:21:33.295Z,3.22
2022-09-01T18:24:14.173Z,3.90
2022-09-01T18:26:45.948Z,2.58
2022-09-01T18:29:14.115Z,3.92
2022-09-01T18:32:06.575Z,2.90
2022-09-01T18:34:48.072Z,3.45
2022-09-01T18:37:25.914Z,5.47
2022-09-01T18:40:03.923Z,3.47
2022-09-01T18:42:37.684Z,3.20
2022-09-01T18:45:12.344Z,3.40
2022-09-01T18:47:50.247Z,3.95
2022-09-01T18:50:25.342Z,2.17
2022-09-01T18:53:19.269Z,3.33
2022-09-01T18:55:53.078Z,3.08
2022-09-01T18:58:34.427Z,2.47
2022-09-01T19:01:07.169Z,2.38
2022-09-01T19:03:42.729Z,2.42
2022-09-01T19:06:29.588Z,2.88
2022-09-01T19:09:09.827Z,3.00
2022-09-01T19:12:03.965Z,2.28
2022-09-01T19:14:44.794Z,2.47
2022-09-01T19:17:26.382Z,4.43
2022-09-01T19:20:00.406Z,2.23
2022-09-01T19:22:37.698Z,2.60
2022-09-01T19:25:27.722Z,4.07
2022-09-01T19:28:02.269Z,2.47
2022-09-01T19:30:35.315Z,3.42
2022-09-01T19:33:06.353Z,2.33
2022-09-01T19:35:40.412Z,2.88
2022-09-01T19:38:10.018Z,2.53
2022-09-01T19:40:43.601Z,2.80
2022-09-01T19:43:15.720Z,3.15
2022-09-01T19:45:56.880Z,2.97
2022-09-01T19:48:32.665Z,2.78
2022-09-01T19:51:09.030Z,2.75
2022-09-01T19:53:46.587Z,2.00
2022-09-01T19:56:20.583Z,2.50
2022-09-01T19:58:59.189Z,2.00
2022-09-01T20:01:39.339Z,3.00
2022-09-01T20:04:18.399Z,2.03
2022-09-01T20:06:55.235Z,3.95
2022-09-01T20:09:30.150Z,3.60
2022-09-01T20:12:12.281Z,3.92
2022-09-01T20:14:56.684Z,2.67
2022-09-01T20:17:28.979Z,2.97
2022-09-01T20:22:40.263Z,3.70
2022-09-01T20:25:13.003Z,2.67
2022-09-01T20:28:08.683Z,3.03
2022-09-01T20:30:44.637Z,3.03
2022-09-01T20:33:18.015Z,3.22
2022-09-01T20:35:51.040Z,2.60
2022-09-01T20:38:42.639Z,2.72
2022-09-01T20:41:20.465Z,2.35
2022-09-01T20:43:53.086Z,2.92
2022-09-01T20:46:23.369Z,3.08
2022-09-01T20:48:52.021Z,2.30
2022-09-01T20:51:27.621Z,3.72
2022-09-01T20:54:09.176Z,2.95
2022-09-01T20:56:51.173Z,2.92
2022-09-01T20:59:29.485Z,3.20
2022-09-01T21:02:05.096Z,3.50
2022-09-01T21:04:48.185Z,3.13
2022-09-01T21:07:19.621Z,2.78
2022-09-01T21:10:00.790Z,1.97
2022-09-01T21:12:38.006Z,2.42
2022-09-01T21:15:21.453Z,2.38
2022-09-01T21:18:04.386Z,2.92
2022-09-01T21:20:45.934Z,2.63
2022-09-01T21:23:16.428Z,3.23
2022-09-01T21:25:46.513Z,2.17
2022-09-01T21:28:20.343Z,3.78
2022-09-01T21:30:52.107Z,2.55
2022-09-01T21:33:21.043Z,2.50
2022-09-01T21:35:49.512Z,1.92
2022-09-01T21:38:18.194Z,2.55
2022-09-01T21:40:49.324Z,4.30
2022-09-01T21:43:20.085Z,2.45
2022-09-01T21:45:49.678Z,2.67
2022-09-01T21:48:38.002Z,3.90
2022-09-01T21:51:06.705Z,2.20
2022-09-01T21:53:35.259Z,2.50
2022-09-01T21:56:05.729Z,2.50
2022-09-01T21:58:34.403Z,2.83
2022-09-01T22:01:03.700Z,2.65
2022-09-01T22:03:32.363Z,3.22
2022-09-01T22:06:00.929Z,3.03
2022-09-01T22:08:29.485Z,2.20
2022-09-01T22:10:57.999Z,2.25
2022-09-01T22:13:28.060Z,2.75
2022-09-01T22:15:56.619Z,2.08
2022-09-01T22:18:24.968Z,2.47
2022-09-01T22:21:02.870Z,2.30
2022-09-01T22:23:31.703Z,2.65
2022-09-01T22:26:00.116Z,3.10
2022-09-01T22:28:30.243Z,2.47
2022-09-01T22:30:58.846Z,2.03
2022-09-01T22:33:27.351Z,1.70
2022-09-01T22:35:57.821Z,2.53
2022-09-01T22:38:26.499Z,2.30
2022-09-01T22:40:59.874Z,2.20
2022-09-01T22:43:31.550Z,2.85
2022-09-01T22:46:00.910Z,3.72
2022-09-01T22:48:30.250Z,2.78
2022-09-01T22:50:58.787Z,4.00
2022-09-01T22:53:27.131Z,2.78
2022-09-01T22:55:55.698Z,1.90
2022-09-01T22:58:24.485Z,2.13
2022-09-01T23:00:59.653Z,1.88
2022-09-01T23:03:28.368Z,2.53
2022-09-01T23:06:05.668Z,2.60
2022-09-01T23:08:34.599Z,2.58
2022-09-01T23:11:03.491Z,1.83
2022-09-01T23:13:34.216Z,2.28
2022-09-01T23:16:06.195Z,1.67
2022-09-01T23:18:36.973Z,1.73
2022-09-01T23:21:07.451Z,2.30
2022-09-01T23:23:36.975Z,3.42
2022-09-01T23:26:08.529Z,2.38
2022-09-01T23:28:38.080Z,1.45
2022-09-01T23:31:10.813Z,2.45
2022-09-01T23:36:31.231Z,1.55
2022-09-01T23:38:59.588Z,1.70
2022-09-01T23:41:31.293Z,2.30
2022-09-01T23:44:02.910Z,2.30
2022-09-01T23:46:38.197Z,2.00
2022-09-01T23:49:07.228Z,2.85
2022-09-01T23:51:35.904Z,1.80
2022-09-01T23:54:04.584Z,1.70
2022-09-01T23:56:33.051Z,2.92
2022-09-01T23:59:02.114Z,2.08
